sensor_id;sensor_type;location;lat;lon;timestamp;P1;durP1;ratioP1;P2;durP2;ratioP2
14139;SDS011;7150;53.514;9.988;2023-10-13T00:02:11;5.27;;;2.07;;
14139;SDS011;7150;53.514;9.988;2023-10-13T00:04:38;4.23;;;1.80;;
14139;SDS011;7150;53.514;9.988;2023-10-13T00:07:06;6.57;;;2.00;;
14139;SDS011;7150;53.514;9.988;2023-10-13T00:09:35;9.07;;;2.17;;
14139;SDS011;7150;53.514;9.988;2023-10-13T00:12:04;4.90;;;2.00;;
14139;SDS011;7150;53.514;9.988;2023-10-13T00:14:38;4.33;;;2.10;;
14139;SDS011;7150;53.514;9.988;2023-10-13T00:17:05;6.47;;;2.13;;
14139;SDS011;7150;53.514;9.988;2023-10-13T00:19:45;3.27;;;1.97;;
14139;SDS011;7150;53.514;9.988;2023-10-13T00:22:12;4.20;;;2.30;;
14139;SDS011;7150;53.514;9.988;2023-10-13T00:24:44;5.60;;;2.20;;
14139;SDS011;7150;53.514;9.988;2023-10-13T00:27:16;4.43;;;1.90;;
14139;SDS011;7150;53.514;9.988;2023-10-13T00:30:02;7.87;;;2.50;;
14139;SDS011;7150;53.514;9.988;2023-10-13T00:32:58;7.47;;;2.50;;
14139;SDS011;7150;53.514;9.988;2023-10-13T00:35:24;7.60;;;2.87;;
14139;SDS011;7150;53.514;9.988;2023-10-13T00:38:07;5.47;;;2.17;;
14139;SDS011;7150;53.514;9.988;2023-10-13T00:40:38;5.93;;;2.67;;
14139;SDS011;7150;53.514;9.988;2023-10-13T00:43:09;8.97;;;2.67;;
14139;SDS011;7150;53.514;9.988;2023-10-13T00:45:46;4.27;;;2.27;;
14139;SDS011;7150;53.514;9.988;2023-10-13T00:48:27;3.37;;;2.17;;
14139;SDS011;7150;53.514;9.988;2023-10-13T00:51:04;8.27;;;2.70;;
14139;SDS011;7150;53.514;9.988;2023-10-13T00:53:38;7.57;;;3.33;;
14139;SDS011;7150;53.514;9.988;2023-10-13T00:56:09;10.33;;;3.03;;
14139;SDS011;7150;53.514;9.988;2023-10-13T00:58:44;7.47;;;2.73;;
14139;SDS011;7150;53.514;9.988;2023-10-13T01:01:13;9.47;;;2.70;;
14139;SDS011;7150;53.514;9.988;2023-10-13T01:03:47;5.63;;;3.03;;
14139;SDS011;7150;53.514;9.988;2023-10-13T01:06:20;5.80;;;2.30;;
14139;SDS011;7150;53.514;9.988;2023-10-13T01:08:56;7.53;;;3.00;;
14139;SDS011;7150;53.514;9.988;2023-10-13T01:11:50;5.90;;;2.70;;
14139;SDS011;7150;53.514;9.988;2023-10-13T01:14:20;8.43;;;2.77;;
14139;SDS011;7150;53.514;9.988;2023-10-13T01:16:48;7.30;;;2.83;;
14139;SDS011;7150;53.514;9.988;2023-10-13T01:19:18;4.63;;;2.30;;
14139;SDS011;7150;53.514;9.988;2023-10-13T01:21:50;6.90;;;2.83;;
14139;SDS011;7150;53.514;9.988;2023-10-13T01:24:22;7.40;;;3.33;;
14139;SDS011;7150;53.514;9.988;2023-10-13T01:26:49;6.27;;;2.63;;
14139;SDS011;7150;53.514;9.988;2023-10-13T01:29:17;6.90;;;2.60;;
14139;SDS011;7150;53.514;9.988;2023-10-13T01:31:44;7.57;;;3.20;;
14139;SDS011;7150;53.514;9.988;2023-10-13T01:34:11;9.23;;;3.30;;
14139;SDS011;7150;53.514;9.988;2023-10-13T01:39:16;11.20;;;3.17;;
14139;SDS011;7150;53.514;9.988;2023-10-13T01:41:45;6.67;;;3.03;;
14139;SDS011;7150;53.514;9.988;2023-10-13T01:44:10;9.73;;;3.47;;
14139;SDS011;7150;53.514;9.988;2023-10-13T01:46:42;8.80;;;3.80;;
14139;SDS011;7150;53.514;9.988;2023-10-13T01:49:07;8.67;;;3.30;;
14139;SDS011;7150;53.514;9.988;2023-10-13T01:51:33;6.87;;;3.30;;
14139;SDS011;7150;53.514;9.988;2023-10-13T01:54:00;7.27;;;3.10;;
14139;SDS011;7150;53.514;9.988;2023-10-13T01:56:28;6.83;;;3.03;;
14139;SDS011;7150;53.514;9.988;2023-10-13T01:58:56;9.10;;;3.50;;
14139;SDS011;7150;53.514;9.988;2023-10-13T02:01:21;8.93;;;4.07;;
14139;SDS011;7150;53.514;9.988;2023-10-13T02:03:57;8.87;;;3.97;;
14139;SDS011;7150;53.514;9.988;2023-10-13T02:06:32;4.93;;;3.43;;
14139;SDS011;7150;53.514;9.988;2023-10-13T02:09:05;10.17;;;4.20;;
14139;SDS011;7150;53.514;9.988;2023-10-13T02:11:38;8.83;;;3.80;;
14139;SDS011;7150;53.514;9.988;2023-10-13T02:14:04;7.60;;;3.70;;
14139;SDS011;7150;53.514;9.988;2023-10-13T02:16:29;8.13;;;4.40;;
14139;SDS011;7150;53.514;9.988;2023-10-13T02:18:56;10.53;;;4.27;;
14139;SDS011;7150;53.514;9.988;2023-10-13T02:21:29;8.90;;;4.40;;
14139;SDS011;7150;53.514;9.988;2023-10-13T02:23:58;10.57;;;4.80;;
14139;SDS011;7150;53.514;9.988;2023-10-13T02:26:30;9.87;;;4.47;;
14139;SDS011;7150;53.514;9.988;2023-10-13T02:28:59;9.53;;;5.10;;
14139;SDS011;7150;53.514;9.988;2023-10-13T02:31:32;13.67;;;5.47;;
14139;SDS011;7150;53.514;9.988;2023-10-13T02:34:01;12.70;;;4.93;;
14139;SDS011;7150;53.514;9.988;2023-10-13T02:36:31;13.73;;;5.57;;
14139;SDS011;7150;53.514;9.988;2023-10-13T02:39:05;13.97;;;5.93;;
14139;SDS011;7150;53.514;9.988;2023-10-13T02:41:34;12.87;;;6.00;;
14139;SDS011;7150;53.514;9.988;2023-10-13T02:44:03;11.73;;;5.33;;
14139;SDS011;7150;53.514;9.988;2023-10-13T02:46:33;13.70;;;6.77;;
14139;SDS011;7150;53.514;9.988;2023-10-13T02:49:04;13.43;;;5.70;;
14139;SDS011;7150;53.514;9.988;2023-10-13T02:51:37;9.97;;;5.30;;
14139;SDS011;7150;53.514;9.988;2023-10-13T02:54:06;9.47;;;5.53;;
14139;SDS011;7150;53.514;9.988;2023-10-13T02:56:36;11.53;;;7.17;;
14139;SDS011;7150;53.514;9.988;2023-10-13T02:59:03;12.43;;;6.27;;
14139;SDS011;7150;53.514;9.988;2023-10-13T03:01:32;11.67;;;5.87;;
14139;SDS011;7150;53.514;9.988;2023-10-13T03:03:59;13.83;;;7.10;;
14139;SDS011;7150;53.514;9.988;2023-10-13T03:06:26;11.30;;;6.40;;
14139;SDS011;7150;53.514;9.988;2023-10-13T03:08:59;12.70;;;6.87;;
14139;SDS011;7150;53.514;9.988;2023-10-13T03:11:38;11.50;;;6.80;;
14139;SDS011;7150;53.514;9.988;2023-10-13T03:14:07;13.27;;;6.27;;
14139;SDS011;7150;53.514;9.988;2023-10-13T03:16:44;13.80;;;6.93;;
14139;SDS011;7150;53.514;9.988;2023-10-13T03:19:12;10.27;;;5.73;;
14139;SDS011;7150;53.514;9.988;2023-10-13T03:21:38;10.93;;;6.70;;
14139;SDS011;7150;53.514;9.988;2023-10-13T03:24:07;13.10;;;6.73;;
14139;SDS011;7150;53.514;9.988;2023-10-13T03:26:38;11.00;;;5.93;;
14139;SDS011;7150;53.514;9.988;2023-10-13T03:29:09;10.60;;;6.70;;
14139;SDS011;7150;53.514;9.988;2023-10-13T03:31:38;9.53;;;5.73;;
14139;SDS011;7150;53.514;9.988;2023-10-13T03:34:04;9.80;;;6.40;;
14139;SDS011;7150;53.514;9.988;2023-10-13T03:36:36;11.53;;;5.83;;
14139;SDS011;7150;53.514;9.988;2023-10-13T03:39:21;10.93;;;5.70;;
14139;SDS011;7150;53.514;9.988;2023-10-13T03:41:55;10.73;;;6.13;;
14139;SDS011;7150;53.514;9.988;2023-10-13T03:44:22;7.57;;;4.90;;
14139;SDS011;7150;53.514;9.988;2023-10-13T03:46:53;10.30;;;5.33;;
14139;SDS011;7150;53.514;9.988;2023-10-13T03:49:19;8.67;;;5.10;;
14139;SDS011;7150;53.514;9.988;2023-10-13T03:51:47;7.00;;;5.20;;
14139;SDS011;7150;53.514;9.988;2023-10-13T03:54:13;6.77;;;4.93;;
14139;SDS011;7150;53.514;9.988;2023-10-13T03:56:41;8.50;;;5.43;;
14139;SDS011;7150;53.514;9.988;2023-10-13T03:59:09;7.50;;;4.70;;
14139;SDS011;7150;53.514;9.988;2023-10-13T04:01:43;8.70;;;5.73;;
14139;SDS011;7150;53.514;9.988;2023-10-13T04:04:12;9.17;;;5.50;;
14139;SDS011;7150;53.514;9.988;2023-10-13T04:06:58;10.90;;;5.73;;
14139;SDS011;7150;53.514;9.988;2023-10-13T04:09:32;10.77;;;5.83;;
14139;SDS011;7150;53.514;9.988;2023-10-13T04:12:01;9.67;;;5.77;;
14139;SDS011;7150;53.514;9.988;2023-10-13T04:14:51;8.27;;;5.30;;
14139;SDS011;7150;53.514;9.988;2023-10-13T04:17:20;9.00;;;5.43;;
14139;SDS011;7150;53.514;9.988;2023-10-13T04:19:49;7.63;;;5.10;;
14139;SDS011;7150;53.514;9.988;2023-10-13T04:22:36;8.97;;;5.83;;
14139;SDS011;7150;53.514;9.988;2023-10-13T04:25:13;8.80;;;6.20;;
14139;SDS011;7150;53.514;9.988;2023-10-13T04:28:15;6.83;;;5.53;;
14139;SDS011;7150;53.514;9.988;2023-10-13T04:31:00;8.43;;;5.30;;
14139;SDS011;7150;53.514;9.988;2023-10-13T04:33:45;8.67;;;5.60;;
14139;SDS011;7150;53.514;9.988;2023-10-13T04:36:18;8.10;;;5.37;;
14139;SDS011;7150;53.514;9.988;2023-10-13T04:38:56;8.40;;;5.70;;
14139;SDS011;7150;53.514;9.988;2023-10-13T04:41:27;8.83;;;5.67;;
14139;SDS011;7150;53.514;9.988;2023-10-13T04:44:01;9.43;;;5.90;;
14139;SDS011;7150;53.514;9.988;2023-10-13T04:46:30;7.90;;;5.13;;
14139;SDS011;7150;53.514;9.988;2023-10-13T04:49:11;9.03;;;5.80;;
14139;SDS011;7150;53.514;9.988;2023-10-13T04:51:54;8.13;;;5.47;;
14139;SDS011;7150;53.514;9.988;2023-10-13T04:54:40;8.73;;;5.97;;
14139;SDS011;7150;53.514;9.988;2023-10-13T04:57:14;9.63;;;6.20;;
14139;SDS011;7150;53.514;9.988;2023-10-13T04:59:59;8.27;;;5.87;;
14139;SDS011;7150;53.514;9.988;2023-10-13T05:02:42;7.50;;;5.50;;
14139;SDS011;7150;53.514;9.988;2023-10-13T05:05:27;10.03;;;6.77;;
14139;SDS011;7150;53.514;9.988;2023-10-13T05:08:13;11.60;;;7.30;;
14139;SDS011;7150;53.514;9.988;2023-10-13T05:10:57;11.83;;;7.33;;
14139;SDS011;7150;53.514;9.988;2023-10-13T05:13:46;14.33;;;8.83;;
14139;SDS011;7150;53.514;9.988;2023-10-13T05:16:30;14.50;;;9.73;;
14139;SDS011;7150;53.514;9.988;2023-10-13T05:19:14;16.13;;;10.47;;
14139;SDS011;7150;53.514;9.988;2023-10-13T05:21:58;16.60;;;11.23;;
14139;SDS011;7150;53.514;9.988;2023-10-13T05:24:42;16.03;;;11.30;;
14139;SDS011;7150;53.514;9.988;2023-10-13T05:27:26;18.67;;;11.97;;
14139;SDS011;7150;53.514;9.988;2023-10-13T05:30:10;17.53;;;11.33;;
14139;SDS011;7150;53.514;9.988;2023-10-13T05:32:54;16.70;;;12.47;;
14139;SDS011;7150;53.514;9.988;2023-10-13T05:35:38;15.90;;;11.77;;
14139;SDS011;7150;53.514;9.988;2023-10-13T05:38:36;17.50;;;11.73;;
14139;SDS011;7150;53.514;9.988;2023-10-13T05:41:20;17.07;;;12.33;;
14139;SDS011;7150;53.514;9.988;2023-10-13T05:44:05;19.80;;;12.90;;
14139;SDS011;7150;53.514;9.988;2023-10-13T05:46:49;22.43;;;12.97;;
14139;SDS011;7150;53.514;9.988;2023-10-13T05:49:35;18.00;;;11.87;;
14139;SDS011;7150;53.514;9.988;2023-10-13T05:52:18;16.17;;;11.67;;
14139;SDS011;7150;53.514;9.988;2023-10-13T05:54:44;17.33;;;12.90;;
14139;SDS011;7150;53.514;9.988;2023-10-13T05:57:31;17.57;;;13.10;;
14139;SDS011;7150;53.514;9.988;2023-10-13T06:00:15;18.67;;;13.00;;
14139;SDS011;7150;53.514;9.988;2023-10-13T06:02:59;17.33;;;12.70;;
14139;SDS011;7150;53.514;9.988;2023-10-13T06:05:44;17.57;;;13.23;;
14139;SDS011;7150;53.514;9.988;2023-10-13T06:08:28;18.73;;;13.33;;
14139;SDS011;7150;53.514;9.988;2023-10-13T06:11:15;19.37;;;13.80;;
14139;SDS011;7150;53.514;9.988;2023-10-13T06:13:59;17.63;;;11.90;;
14139;SDS011;7150;53.514;9.988;2023-10-13T06:16:43;18.00;;;12.43;;
14139;SDS011;7150;53.514;9.988;2023-10-13T06:22:50;20.10;;;13.77;;
14139;SDS011;7150;53.514;9.988;2023-10-13T06:25:35;18.47;;;13.00;;
14139;SDS011;7150;53.514;9.988;2023-10-13T06:28:19;19.77;;;13.57;;
14139;SDS011;7150;53.514;9.988;2023-10-13T06:31:04;19.30;;;14.20;;
14139;SDS011;7150;53.514;9.988;2023-10-13T06:33:34;20.53;;;12.93;;
14139;SDS011;7150;53.514;9.988;2023-10-13T06:36:03;19.33;;;14.43;;
14139;SDS011;7150;53.514;9.988;2023-10-13T06:38:34;23.23;;;14.87;;
14139;SDS011;7150;53.514;9.988;2023-10-13T06:41:03;19.73;;;14.30;;
14139;SDS011;7150;53.514;9.988;2023-10-13T06:43:33;19.87;;;15.00;;
14139;SDS011;7150;53.514;9.988;2023-10-13T06:46:09;20.03;;;13.97;;
14139;SDS011;7150;53.514;9.988;2023-10-13T06:48:41;21.83;;;15.13;;
14139;SDS011;7150;53.514;9.988;2023-10-13T06:51:07;21.83;;;15.53;;
14139;SDS011;7150;53.514;9.988;2023-10-13T06:53:43;22.83;;;16.73;;
14139;SDS011;7150;53.514;9.988;2023-10-13T06:56:12;21.67;;;16.57;;
14139;SDS011;7150;53.514;9.988;2023-10-13T06:58:43;20.37;;;15.20;;
14139;SDS011;7150;53.514;9.988;2023-10-13T07:01:12;25.70;;;17.13;;
14139;SDS011;7150;53.514;9.988;2023-10-13T07:03:40;24.00;;;16.03;;
14139;SDS011;7150;53.514;9.988;2023-10-13T07:06:07;21.67;;;16.17;;
14139;SDS011;7150;53.514;9.988;2023-10-13T07:08:38;25.03;;;17.17;;
14139;SDS011;7150;53.514;9.988;2023-10-13T07:11:04;25.33;;;16.23;;
14139;SDS011;7150;53.514;9.988;2023-10-13T07:13:30;19.37;;;14.53;;
14139;SDS011;7150;53.514;9.988;2023-10-13T07:16:01;18.80;;;14.87;;
14139;SDS011;7150;53.514;9.988;2023-10-13T07:18:33;20.13;;;15.00;;
14139;SDS011;7150;53.514;9.988;2023-10-13T07:21:08;20.40;;;15.27;;
14139;SDS011;7150;53.514;9.988;2023-10-13T07:23:35;20.30;;;14.87;;
14139;SDS011;7150;53.514;9.988;2023-10-13T07:26:04;18.67;;;14.97;;
14139;SDS011;7150;53.514;9.988;2023-10-13T07:28:33;22.93;;;14.43;;
14139;SDS011;7150;53.514;9.988;2023-10-13T07:31:12;18.97;;;14.63;;
14139;SDS011;7150;53.514;9.988;2023-10-13T07:33:39;19.90;;;14.70;;
14139;SDS011;7150;53.514;9.988;2023-10-13T07:36:07;20.57;;;14.97;;
14139;SDS011;7150;53.514;9.988;2023-10-13T07:38:53;17.63;;;13.13;;
14139;SDS011;7150;53.514;9.988;2023-10-13T07:41:37;18.23;;;13.70;;
14139;SDS011;7150;53.514;9.988;2023-10-13T07:44:02;18.23;;;13.30;;
14139;SDS011;7150;53.514;9.988;2023-10-13T07:46:31;19.10;;;13.80;;
14139;SDS011;7150;53.514;9.988;2023-10-13T07:49:00;18.30;;;12.87;;
14139;SDS011;7150;53.514;9.988;2023-10-13T07:51:36;15.53;;;12.50;;
14139;SDS011;7150;53.514;9.988;2023-10-13T07:54:14;13.10;;;11.10;;
14139;SDS011;7150;53.514;9.988;2023-10-13T07:56:46;18.20;;;12.23;;
14139;SDS011;7150;53.514;9.988;2023-10-13T07:59:12;16.23;;;11.37;;
14139;SDS011;7150;53.514;9.988;2023-10-13T08:01:41;14.30;;;11.73;;
14139;SDS011;7150;53.514;9.988;2023-10-13T08:04:08;15.50;;;11.33;;
14139;SDS011;7150;53.514;9.988;2023-10-13T08:06:39;13.97;;;9.97;;
14139;SDS011;7150;53.514;9.988;2023-10-13T08:09:06;11.70;;;9.43;;
14139;SDS011;7150;53.514;9.988;2023-10-13T08:11:54;11.70;;;9.60;;
14139;SDS011;7150;53.514;9.988;2023-10-13T08:14:20;11.60;;;8.70;;
14139;SDS011;7150;53.514;9.988;2023-10-13T08:16:53;11.83;;;9.60;;
14139;SDS011;7150;53.514;9.988;2023-10-13T08:19:25;10.57;;;8.87;;
14139;SDS011;7150;53.514;9.988;2023-10-13T08:22:10;11.50;;;9.17;;
14139;SDS011;7150;53.514;9.988;2023-10-13T08:24:45;11.70;;;9.53;;
14139;SDS011;7150;53.514;9.988;2023-10-13T08:27:11;12.20;;;8.60;;
14139;SDS011;7150;53.514;9.988;2023-10-13T08:29:44;11.53;;;8.17;;
14139;SDS011;7150;53.514;9.988;2023-10-13T08:32:19;11.03;;;7.63;;
14139;SDS011;7150;53.514;9.988;2023-10-13T08:34:55;9.67;;;8.40;;
14139;SDS011;7150;53.514;9.988;2023-10-13T08:37:27;10.43;;;8.77;;
14139;SDS011;7150;53.514;9.988;2023-10-13T08:39:58;10.10;;;8.23;;
14139;SDS011;7150;53.514;9.988;2023-10-13T08:45:15;10.57;;;8.17;;
14139;SDS011;7150;53.514;9.988;2023-10-13T08:47:50;9.20;;;7.53;;
14139;SDS011;7150;53.514;9.988;2023-10-13T08:50:51;9.27;;;7.67;;
14139;SDS011;7150;53.514;9.988;2023-10-13T08:53:18;7.23;;;6.47;;
14139;SDS011;7150;53.514;9.988;2023-10-13T08:55:55;8.47;;;6.53;;
14139;SDS011;7150;53.514;9.988;2023-10-13T08:58:39;7.60;;;6.63;;
14139;SDS011;7150;53.514;9.988;2023-10-13T09:01:21;6.80;;;5.93;;
14139;SDS011;7150;53.514;9.988;2023-10-13T09:06:48;6.53;;;5.43;;
14139;SDS011;7150;53.514;9.988;2023-10-13T09:09:27;7.37;;;4.87;;
14139;SDS011;7150;53.514;9.988;2023-10-13T09:12:14;7.07;;;5.10;;
14139;SDS011;7150;53.514;9.988;2023-10-13T09:14:43;7.37;;;5.20;;
14139;SDS011;7150;53.514;9.988;2023-10-13T09:17:22;5.50;;;4.90;;
14139;SDS011;7150;53.514;9.988;2023-10-13T09:20:02;5.40;;;4.90;;
14139;SDS011;7150;53.514;9.988;2023-10-13T09:22:47;6.40;;;4.37;;
14139;SDS011;7150;53.514;9.988;2023-10-13T09:25:29;5.90;;;4.60;;
14139;SDS011;7150;53.514;9.988;2023-10-13T09:27:58;7.63;;;4.60;;
14139;SDS011;7150;53.514;9.988;2023-10-13T09:30:25;7.33;;;4.73;;
14139;SDS011;7150;53.514;9.988;2023-10-13T09:33:03;16.07;;;5.00;;
14139;SDS011;7150;53.514;9.988;2023-10-13T09:35:30;6.33;;;4.20;;
14139;SDS011;7150;53.514;9.988;2023-10-13T09:37:59;10.50;;;4.80;;
14139;SDS011;7150;53.514;9.988;2023-10-13T09:40:27;4.97;;;4.40;;
14139;SDS011;7150;53.514;9.988;2023-10-13T09:43:11;5.87;;;3.90;;
14139;SDS011;7150;53.514;9.988;2023-10-13T09:45:43;7.33;;;5.00;;
14139;SDS011;7150;53.514;9.988;2023-10-13T09:48:39;5.77;;;4.43;;
14139;SDS011;7150;53.514;9.988;2023-10-13T09:51:14;8.77;;;4.80;;
14139;SDS011;7150;53.514;9.988;2023-10-13T09:53:45;6.63;;;4.67;;
14139;SDS011;7150;53.514;9.988;2023-10-13T09:56:20;7.73;;;3.87;;
14139;SDS011;7150;53.514;9.988;2023-10-13T09:58:55;6.73;;;4.87;;
14139;SDS011;7150;53.514;9.988;2023-10-13T10:01:37;7.37;;;4.67;;
14139;SDS011;7150;53.514;9.988;2023-10-13T10:04:15;8.63;;;4.70;;
14139;SDS011;7150;53.514;9.988;2023-10-13T10:06:52;6.93;;;4.67;;
14139;SDS011;7150;53.514;9.988;2023-10-13T10:09:19;6.17;;;4.43;;
14139;SDS011;7150;53.514;9.988;2023-10-13T10:14:52;6.73;;;4.50;;
14139;SDS011;7150;53.514;9.988;2023-10-13T10:17:45;6.77;;;4.03;;
14139;SDS011;7150;53.514;9.988;2023-10-13T10:20:12;8.37;;;4.30;;
14139;SDS011;7150;53.514;9.988;2023-10-13T10:22:55;7.30;;;4.00;;
14139;SDS011;7150;53.514;9.988;2023-10-13T10:25:31;6.53;;;3.80;;
14139;SDS011;7150;53.514;9.988;2023-10-13T10:28:01;7.83;;;3.97;;
14139;SDS011;7150;53.514;9.988;2023-10-13T10:30:30;7.23;;;4.63;;
14139;SDS011;7150;53.514;9.988;2023-10-13T10:32:59;6.17;;;4.57;;
14139;SDS011;7150;53.514;9.988;2023-10-13T10:35:27;5.30;;;4.20;;
14139;SDS011;7150;53.514;9.988;2023-10-13T10:37:57;7.10;;;4.47;;
14139;SDS011;7150;53.514;9.988;2023-10-13T10:40:37;8.20;;;4.77;;
14139;SDS011;7150;53.514;9.988;2023-10-13T10:43:17;7.77;;;4.60;;
14139;SDS011;7150;53.514;9.988;2023-10-13T10:45:47;5.13;;;4.30;;
14139;SDS011;7150;53.514;9.988;2023-10-13T10:48:16;6.57;;;4.30;;
14139;SDS011;7150;53.514;9.988;2023-10-13T10:50:43;7.23;;;4.13;;
14139;SDS011;7150;53.514;9.988;2023-10-13T10:53:18;5.67;;;4.20;;
14139;SDS011;7150;53.514;9.988;2023-10-13T10:56:06;7.37;;;4.60;;
14139;SDS011;7150;53.514;9.988;2023-10-13T10:58:44;8.67;;;4.43;;
14139;SDS011;7150;53.514;9.988;2023-10-13T11:01:11;18.33;;;11.07;;
14139;SDS011;7150;53.514;9.988;2023-10-13T11:03:42;20.33;;;12.00;;
14139;SDS011;7150;53.514;9.988;2023-10-13T11:06:20;14.47;;;8.37;;
14139;SDS011;7150;53.514;9.988;2023-10-13T11:08:49;8.87;;;5.80;;
14139;SDS011;7150;53.514;9.988;2023-10-13T11:11:28;8.87;;;5.13;;
14139;SDS011;7150;53.514;9.988;2023-10-13T11:13:58;8.50;;;5.30;;
14139;SDS011;7150;53.514;9.988;2023-10-13T11:16:44;5.80;;;4.43;;
14139;SDS011;7150;53.514;9.988;2023-10-13T11:19:16;8.87;;;5.27;;
14139;SDS011;7150;53.514;9.988;2023-10-13T11:21:48;5.87;;;4.37;;
14139;SDS011;7150;53.514;9.988;2023-10-13T11:24:13;7.37;;;4.97;;
14139;SDS011;7150;53.514;9.988;2023-10-13T11:26:43;8.77;;;5.20;;
14139;SDS011;7150;53.514;9.988;2023-10-13T11:29:17;7.60;;;4.77;;
14139;SDS011;7150;53.514;9.988;2023-10-13T11:31:44;7.73;;;5.37;;
14139;SDS011;7150;53.514;9.988;2023-10-13T11:34:20;8.57;;;4.87;;
14139;SDS011;7150;53.514;9.988;2023-10-13T11:36:45;6.83;;;4.80;;
14139;SDS011;7150;53.514;9.988;2023-10-13T11:39:12;8.63;;;5.27;;
14139;SDS011;7150;53.514;9.988;2023-10-13T11:41:50;7.03;;;5.17;;
14139;SDS011;7150;53.514;9.988;2023-10-13T11:44:20;5.90;;;4.60;;
14139;SDS011;7150;53.514;9.988;2023-10-13T11:46:45;7.17;;;5.03;;
14139;SDS011;7150;53.514;9.988;2023-10-13T11:49:21;7.00;;;4.47;;
14139;SDS011;7150;53.514;9.988;2023-10-13T11:51:47;9.57;;;4.70;;
14139;SDS011;7150;53.514;9.988;2023-10-13T11:56:43;6.93;;;4.47;;
14139;SDS011;7150;53.514;9.988;2023-10-13T11:59:12;10.20;;;4.67;;
14139;SDS011;7150;53.514;9.988;2023-10-13T12:01:43;9.17;;;4.43;;
14139;SDS011;7150;53.514;9.988;2023-10-13T12:04:32;8.47;;;4.63;;
14139;SDS011;7150;53.514;9.988;2023-10-13T12:07:14;8.50;;;4.57;;
14139;SDS011;7150;53.514;9.988;2023-10-13T12:09:47;8.83;;;5.00;;
14139;SDS011;7150;53.514;9.988;2023-10-13T12:12:23;8.03;;;4.40;;
14139;SDS011;7150;53.514;9.988;2023-10-13T12:14:49;8.60;;;4.73;;
14139;SDS011;7150;53.514;9.988;2023-10-13T12:17:21;9.13;;;4.87;;
14139;SDS011;7150;53.514;9.988;2023-10-13T12:20:10;7.00;;;4.40;;
14139;SDS011;7150;53.514;9.988;2023-10-13T12:22:43;5.67;;;4.20;;
14139;SDS011;7150;53.514;9.988;2023-10-13T12:25:16;10.37;;;5.67;;
14139;SDS011;7150;53.514;9.988;2023-10-13T12:27:54;8.60;;;4.87;;
14139;SDS011;7150;53.514;9.988;2023-10-13T12:30:24;7.97;;;4.53;;
14139;SDS011;7150;53.514;9.988;2023-10-13T12:33:09;7.50;;;4.27;;
14139;SDS011;7150;53.514;9.988;2023-10-13T12:35:35;9.10;;;4.70;;
14139;SDS011;7150;53.514;9.988;2023-10-13T12:38:11;7.63;;;4.50;;
14139;SDS011;7150;53.514;9.988;2023-10-13T12:41:04;6.67;;;4.40;;
14139;SDS011;7150;53.514;9.988;2023-10-13T12:43:52;10.10;;;4.43;;
14139;SDS011;7150;53.514;9.988;2023-10-13T12:46:36;9.67;;;4.90;;
14139;SDS011;7150;53.514;9.988;2023-10-13T12:49:20;10.27;;;4.63;;
14139;SDS011;7150;53.514;9.988;2023-10-13T12:52:04;9.87;;;5.00;;
14139;SDS011;7150;53.514;9.988;2023-10-13T12:54:40;9.50;;;4.60;;
14139;SDS011;7150;53.514;9.988;2023-10-13T12:57:11;6.90;;;4.40;;
14139;SDS011;7150;53.514;9.988;2023-10-13T12:59:37;7.83;;;4.30;;
14139;SDS011;7150;53.514;9.988;2023-10-13T13:02:03;10.60;;;5.13;;
14139;SDS011;7150;53.514;9.988;2023-10-13T13:04:32;7.20;;;4.17;;
14139;SDS011;7150;53.514;9.988;2023-10-13T13:07:01;7.30;;;4.57;;
14139;SDS011;7150;53.514;9.988;2023-10-13T13:09:30;7.83;;;4.80;;
14139;SDS011;7150;53.514;9.988;2023-10-13T13:12:02;5.73;;;4.13;;
14139;SDS011;7150;53.514;9.988;2023-10-13T13:14:31;7.77;;;4.70;;
14139;SDS011;7150;53.514;9.988;2023-10-13T13:16:59;7.60;;;4.77;;
14139;SDS011;7150;53.514;9.988;2023-10-13T13:19:34;8.40;;;4.70;;
14139;SDS011;7150;53.514;9.988;2023-10-13T13:22:07;10.10;;;4.57;;
14139;SDS011;7150;53.514;9.988;2023-10-13T13:24:37;8.83;;;4.77;;
14139;SDS011;7150;53.514;9.988;2023-10-13T13:27:08;6.90;;;4.70;;
14139;SDS011;7150;53.514;9.988;2023-10-13T13:29:42;6.77;;;4.47;;
14139;SDS011;7150;53.514;9.988;2023-10-13T13:32:10;9.07;;;4.40;;
14139;SDS011;7150;53.514;9.988;2023-10-13T13:34:58;8.83;;;4.83;;
14139;SDS011;7150;53.514;9.988;2023-10-13T13:37:29;6.80;;;4.00;;
14139;SDS011;7150;53.514;9.988;2023-10-13T13:39:55;8.50;;;4.73;;
14139;SDS011;7150;53.514;9.988;2023-10-13T13:42:20;13.33;;;4.60;;
14139;SDS011;7150;53.514;9.988;2023-10-13T13:44:46;8.60;;;4.47;;
14139;SDS011;7150;53.514;9.988;2023-10-13T13:47:15;8.43;;;4.33;;
14139;SDS011;7150;53.514;9.988;2023-10-13T13:49:43;6.60;;;3.80;;
14139;SDS011;7150;53.514;9.988;2023-10-13T13:52:16;9.20;;;4.30;;
14139;SDS011;7150;53.514;9.988;2023-10-13T13:54:46;6.67;;;3.90;;
14139;SDS011;7150;53.514;9.988;2023-10-13T13:57:12;8.80;;;4.30;;
14139;SDS011;7150;53.514;9.988;2023-10-13T13:59:38;9.13;;;4.60;;
14139;SDS011;7150;53.514;9.988;2023-10-13T14:02:08;9.47;;;4.17;;
14139;SDS011;7150;53.514;9.988;2023-10-13T14:04:47;8.43;;;4.60;;
14139;SDS011;7150;53.514;9.988;2023-10-13T14:07:20;11.60;;;4.97;;
14139;SDS011;7150;53.514;9.988;2023-10-13T14:09:49;8.63;;;4.90;;
14139;SDS011;7150;53.514;9.988;2023-10-13T14:12:18;10.47;;;5.03;;
14139;SDS011;7150;53.514;9.988;2023-10-13T14:15:08;8.20;;;5.03;;
14139;SDS011;7150;53.514;9.988;2023-10-13T14:17:48;7.83;;;4.90;;
14139;SDS011;7150;53.514;9.988;2023-10-13T14:20:15;8.27;;;4.20;;
14139;SDS011;7150;53.514;9.988;2023-10-13T14:22:45;11.23;;;4.77;;
14139;SDS011;7150;53.514;9.988;2023-10-13T14:25:13;9.47;;;4.97;;
14139;SDS011;7150;53.514;9.988;2023-10-13T14:27:39;8.93;;;4.93;;
14139;SDS011;7150;53.514;9.988;2023-10-13T14:30:06;8.93;;;5.00;;
14139;SDS011;7150;53.514;9.988;2023-10-13T14:32:32;6.10;;;4.43;;
14139;SDS011;7150;53.514;9.988;2023-10-13T14:35:00;7.67;;;4.83;;
14139;SDS011;7150;53.514;9.988;2023-10-13T14:37:36;8.30;;;4.57;;
14139;SDS011;7150;53.514;9.988;2023-10-13T14:40:01;8.07;;;5.20;;
14139;SDS011;7150;53.514;9.988;2023-10-13T14:42:28;10.07;;;5.03;;
14139;SDS011;7150;53.514;9.988;2023-10-13T14:44:59;8.67;;;5.10;;
14139;SDS011;7150;53.514;9.988;2023-10-13T14:47:25;10.53;;;4.87;;
14139;SDS011;7150;53.514;9.988;2023-10-13T14:49:54;10.13;;;4.83;;
14139;SDS011;7150;53.514;9.988;2023-10-13T14:52:21;8.40;;;5.10;;
14139;SDS011;7150;53.514;9.988;2023-10-13T14:54:47;9.07;;;4.63;;
14139;SDS011;7150;53.514;9.988;2023-10-13T14:57:16;8.17;;;4.80;;
14139;SDS011;7150;53.514;9.988;2023-10-13T14:59:41;9.67;;;4.90;;
14139;SDS011;7150;53.514;9.988;2023-10-13T15:02:07;6.50;;;4.97;;
14139;SDS011;7150;53.514;9.988;2023-10-13T15:04:33;10.57;;;5.23;;
14139;SDS011;7150;53.514;9.988;2023-10-13T15:06:59;11.60;;;5.87;;
14139;SDS011;7150;53.514;9.988;2023-10-13T15:09:28;10.60;;;4.93;;
14139;SDS011;7150;53.514;9.988;2023-10-13T15:11:54;9.37;;;5.80;;
14139;SDS011;7150;53.514;9.988;2023-10-13T15:14:20;10.70;;;5.67;;
14139;SDS011;7150;53.514;9.988;2023-10-13T15:16:49;9.37;;;5.20;;
14139;SDS011;7150;53.514;9.988;2023-10-13T15:19:14;13.30;;;5.83;;
14139;SDS011;7150;53.514;9.988;2023-10-13T15:21:44;8.23;;;4.73;;
14139;SDS011;7150;53.514;9.988;2023-10-13T15:24:15;12.97;;;5.33;;
14139;SDS011;7150;53.514;9.988;2023-10-13T15:26:46;10.70;;;5.30;;
14139;SDS011;7150;53.514;9.988;2023-10-13T15:29:14;13.70;;;5.47;;
14139;SDS011;7150;53.514;9.988;2023-10-13T15:31:41;9.10;;;5.23;;
14139;SDS011;7150;53.514;9.988;2023-10-13T15:34:30;10.23;;;5.20;;
14139;SDS011;7150;53.514;9.988;2023-10-13T15:36:57;12.27;;;5.70;;
14139;SDS011;7150;53.514;9.988;2023-10-13T15:39:25;11.37;;;5.10;;
14139;SDS011;7150;53.514;9.988;2023-10-13T15:41:53;11.57;;;4.80;;
14139;SDS011;7150;53.514;9.988;2023-10-13T15:44:24;8.63;;;5.20;;
14139;SDS011;7150;53.514;9.988;2023-10-13T15:46:53;7.83;;;4.43;;
14139;SDS011;7150;53.514;9.988;2023-10-13T15:49:21;9.47;;;5.27;;